Time;durP1;ratioP1;P1;durP2;ratioP2;P2;SDS_P1;SDS_P2;PMS_P1;PMS_P2;Temp;Humidity;BMP_temperature;BMP_pressure;BME280_temperature;BME280_humidity;BME280_pressure;Samples;Min_cycle;Max_cycle;Signal;HPM_P1;HPM_P2
2022/04/06 00:01:35;;;;;;;12.27;11.07;;;9.00;99.90;;;;;;5030961;28;20033;-87
2022/04/06 00:04:01;;;;;;;11.73;10.52;;;9.00;99.90;;;;;;5048935;28;20135;-86
2022/04/06 00:06:27;;;;;;;10.45;9.45;;;9.10;99.90;;;;;;5051671;28;20096;-87
2022/04/06 00:08:52;;;;;;;11.15;10.25;;;9.10;99.90;;;;;;5049488;28;20025;-87
2022/04/06 00:11:18;;;;;;;11.52;10.40;;;9.00;99.90;;;;;;5032167;28;20041;-87
2022/04/06 00:13:44;;;;;;;11.18;10.07;;;9.00;99.90;;;;;;5033184;28;20478;-86
2022/04/06 00:16:09;;;;;;;10.93;9.82;;;9.00;99.90;;;;;;5049782;28;20025;-87
2022/04/06 00:18:35;;;;;;;10.45;9.55;;;9.10;99.90;;;;;;5031921;28;20053;-86
2022/04/06 00:21:00;;;;;;;10.90;9.77;;;9.10;99.90;;;;;;5032445;28;20043;-86
2022/04/06 00:23:26;;;;;;;10.13;9.25;;;9.10;99.90;;;;;;5049948;28;20055;-86
2022/04/06 00:25:52;;;;;;;10.63;9.73;;;9.10;99.90;;;;;;5049327;28;20060;-86
2022/04/06 00:28:17;;;;;;;9.93;9.13;;;9.10;99.90;;;;;;5053654;28;20452;-86
2022/04/06 00:30:43;;;;;;;10.15;9.25;;;9.10;99.90;;;;;;5049160;28;20029;-86
2022/04/06 00:33:08;;;;;;;9.10;8.30;;;9.10;99.90;;;;;;5048594;28;20036;-87
2022/04/06 00:35:34;;;;;;;9.55;8.65;;;9.10;99.90;;;;;;5050729;28;20059;-87
2022/04/06 00:38:03;;;;;;;9.65;8.85;;;9.10;99.90;;;;;;5033110;28;20423;-86
2022/04/06 00:40:30;;;;;;;9.57;8.77;;;9.20;99.90;;;;;;5049658;28;20108;-87
2022/04/06 00:42:55;;;;;;;9.45;8.65;;;9.10;99.90;;;;;;5049263;28;20530;-85
2022/04/06 00:45:23;;;;;;;9.50;8.70;;;9.10;99.90;;;;;;5029943;28;20112;-86
2022/04/06 00:47:50;;;;;;;10.07;9.27;;;9.10;99.90;;;;;;5032119;28;20079;-87
2022/04/06 00:50:17;;;;;;;9.63;8.82;;;9.10;99.90;;;;;;5046207;28;20037;-87
2022/04/06 00:52:43;;;;;;;9.63;8.82;;;9.10;99.90;;;;;;5031720;28;20025;-86
2022/04/06 00:55:11;;;;;;;9.07;8.27;;;9.10;99.90;;;;;;5050459;28;20056;-86
2022/04/06 00:57:38;;;;;;;8.73;7.97;;;9.10;99.90;;;;;;5051225;28;20013;-86
2022/04/06 01:00:05;;;;;;;9.02;8.10;;;9.10;99.90;;;;;;5036551;28;20033;-86
2022/04/06 01:02:32;;;;;;;8.68;7.95;;;9.10;99.90;;;;;;5033307;28;20028;-88
2022/04/06 01:04:58;;;;;;;9.73;8.93;;;9.20;99.90;;;;;;5031474;28;20128;-85
2022/04/06 01:07:24;;;;;;;9.32;8.43;;;9.10;99.90;;;;;;5050199;28;20112;-88
2022/04/06 01:09:50;;;;;;;9.30;8.50;;;9.10;99.90;;;;;;5049896;28;20144;-87
2022/04/06 01:12:15;;;;;;;8.70;7.90;;;9.20;99.90;;;;;;5049859;28;20117;-86
2022/04/06 01:14:42;;;;;;;9.57;8.68;;;9.20;99.90;;;;;;5049192;28;20037;-87
2022/04/06 01:17:09;;;;;;;8.98;8.27;;;9.20;99.90;;;;;;5031479;28;20033;-87
2022/04/06 01:19:44;;;;;;;8.10;7.50;;;9.20;99.90;;;;;;5047414;28;20048;-87
2022/04/06 01:22:14;;;;;;;8.25;7.55;;;9.20;99.90;;;;;;5031253;28;20025;-86
2022/04/06 01:24:41;;;;;;;9.18;8.27;;;9.20;99.90;;;;;;5028837;28;20508;-85
2022/04/06 01:27:07;;;;;;;9.07;8.27;;;9.20;99.90;;;;;;5049028;28;20033;-86
2022/04/06 01:29:33;;;;;;;8.85;8.02;;;9.20;99.90;;;;;;5048931;28;20086;-88
2022/04/06 01:32:20;;;;;;;8.57;7.88;;;9.20;99.90;;;;;;5048490;28;20041;-87
2022/04/06 01:34:47;;;;;;;8.57;7.88;;;9.20;99.90;;;;;;5047568;28;20044;-87
2022/04/06 01:37:13;;;;;;;9.57;8.68;;;9.20;99.90;;;;;;5051779;28;20024;-88
2022/04/06 01:39:42;;;;;;;8.18;7.38;;;9.20;99.90;;;;;;5055090;28;20040;-85
2022/04/06 01:42:09;;;;;;;7.75;7.15;;;9.30;99.90;;;;;;5052083;28;20029;-86
2022/04/06 01:44:35;;;;;;;8.05;7.35;;;9.30;99.90;;;;;;5052612;28;20041;-86
2022/04/06 01:47:02;;;;;;;8.07;7.28;;;9.30;99.90;;;;;;5053462;28;20075;-88
2022/04/06 01:52:12;;;;;;;8.48;7.65;;;9.30;99.90;;;;;;5052072;28;20031;-86
2022/04/06 01:54:46;;;;;;;8.43;7.35;;;9.30;99.90;;;;;;5035266;28;20025;-87
2022/04/06 01:57:12;;;;;;;8.27;7.57;;;9.30;99.90;;;;;;5052811;28;20385;-86
2022/04/06 01:59:38;;;;;;;7.75;7.15;;;9.30;99.90;;;;;;5033465;28;20405;-86
2022/04/06 02:02:05;;;;;;;7.15;6.45;;;9.30;99.90;;;;;;5052820;28;20033;-87
2022/04/06 02:04:31;;;;;;;7.47;6.82;;;9.30;99.90;;;;;;5053148;28;20033;-86
2022/04/06 02:06:57;;;;;;;8.13;7.38;;;9.30;99.90;;;;;;5052714;28;20048;-86
2022/04/06 02:09:22;;;;;;;7.60;7.00;;;9.30;99.90;;;;;;5052873;28;20037;-86
2022/04/06 02:11:48;;;;;;;8.10;7.40;;;9.30;99.90;;;;;;5034406;28;20044;-86
2022/04/06 02:14:14;;;;;;;8.10;7.20;;;9.30;99.90;;;;;;5034080;28;20485;-87
2022/04/06 02:16:40;;;;;;;9.48;7.10;;;9.30;99.90;;;;;;5034498;28;20505;-87
2022/04/06 02:19:06;;;;;;;8.32;7.57;;;9.30;99.90;;;;;;5039705;28;20028;-85
2022/04/06 02:21:33;;;;;;;8.77;8.07;;;9.30;99.90;;;;;;5054130;28;20025;-86
2022/04/06 02:23:58;;;;;;;8.43;7.60;;;9.30;99.90;;;;;;5052325;28;20040;-86
2022/04/06 02:26:25;;;;;;;7.68;6.97;;;9.30;99.90;;;;;;5051300;28;20024;-86
2022/04/06 02:28:51;;;;;;;8.52;7.80;;;9.30;99.90;;;;;;5052566;28;20048;-86
2022/04/06 02:31:16;;;;;;;7.65;6.95;;;9.20;99.90;;;;;;5052695;28;20045;-86
2022/04/06 02:33:42;;;;;;;7.93;7.20;;;9.20;99.90;;;;;;5035027;28;20033;-87
2022/04/06 02:36:07;;;;;;;8.63;7.63;;;9.30;99.90;;;;;;5053164;28;20111;-88
2022/04/06 02:38:38;;;;;;;8.73;8.02;;;9.30;99.90;;;;;;5052126;28;20036;-87
2022/04/06 02:41:05;;;;;;;8.60;7.82;;;9.30;99.90;;;;;;5052362;28;20079;-86
2022/04/06 02:43:31;;;;;;;7.63;6.80;;;9.30;99.90;;;;;;5052952;28;20551;-86
2022/04/06 02:45:57;;;;;;;8.55;7.85;;;9.30;99.90;;;;;;5043877;28;20447;-86
2022/04/06 02:48:23;;;;;;;8.70;7.97;;;9.30;99.90;;;;;;5039509;28;20021;-86
2022/04/06 02:50:48;;;;;;;8.80;8.00;;;9.30;99.90;;;;;;5050467;28;20025;-87
2022/04/06 02:53:14;;;;;;;8.38;7.57;;;9.30;99.90;;;;;;5052760;28;20064;-86
2022/04/06 02:55:39;;;;;;;9.45;8.65;;;9.30;99.90;;;;;;5051940;28;20459;-86
2022/04/06 02:58:05;;;;;;;8.98;8.05;;;9.30;99.90;;;;;;5034125;28;20028;-86
2022/04/06 03:00:32;;;;;;;7.93;7.32;;;9.30;99.90;;;;;;5055146;28;20033;-85
2022/04/06 03:02:58;;;;;;;8.88;8.07;;;9.40;99.90;;;;;;5019005;28;20079;-86
2022/04/06 03:05:25;;;;;;;8.23;7.55;;;9.40;99.90;;;;;;5046673;28;20041;-87
2022/04/06 03:07:51;;;;;;;8.18;7.57;;;9.40;99.90;;;;;;5049667;28;20119;-86
2022/04/06 03:10:16;;;;;;;8.00;7.30;;;9.40;99.90;;;;;;5049030;28;20029;-86
2022/04/06 03:12:42;;;;;;;7.70;7.10;;;9.30;99.90;;;;;;5034500;28;20021;-86
2022/04/06 03:15:08;;;;;;;8.45;7.75;;;9.40;99.90;;;;;;5032643;28;20081;-85
2022/04/06 03:17:35;;;;;;;7.97;7.28;;;9.30;99.90;;;;;;5046968;28;20083;-87
2022/04/06 03:20:02;;;;;;;8.35;7.68;;;9.40;99.90;;;;;;5032424;28;20036;-87
2022/04/06 03:22:28;;;;;;;8.15;7.45;;;9.40;99.90;;;;;;5031275;28;20082;-86
2022/04/06 03:24:54;;;;;;;7.40;6.80;;;9.40;99.90;;;;;;5049461;28;20032;-86
2022/04/06 03:27:20;;;;;;;8.02;7.32;;;9.40;99.90;;;;;;5033216;28;20021;-87
2022/04/06 03:29:45;;;;;;;8.20;7.50;;;9.30;99.90;;;;;;5031304;28;20115;-85
2022/04/06 03:32:11;;;;;;;7.97;7.38;;;9.40;99.90;;;;;;5052327;28;20041;-86
2022/04/06 03:34:38;;;;;;;8.95;8.15;;;9.30;99.90;;;;;;5032682;28;20101;-86
2022/04/06 03:37:04;;;;;;;7.60;6.90;;;9.40;99.90;;;;;;5032957;28;20495;-86
2022/04/06 03:39:29;;;;;;;8.13;7.47;;;9.40;99.90;;;;;;5052073;28;20021;-86
2022/04/06 03:41:55;;;;;;;10.65;8.48;;;9.30;99.90;;;;;;5033798;28;20033;-87
2022/04/06 03:44:21;;;;;;;10.48;9.38;;;9.30;99.90;;;;;;5033593;28;20095;-88
2022/04/06 03:46:46;;;;;;;8.70;7.93;;;9.30;99.90;;;;;;5052697;28;20396;-86
2022/04/06 03:49:12;;;;;;;7.65;7.05;;;9.30;99.90;;;;;;5051625;28;20021;-88
2022/04/06 03:51:37;;;;;;;7.40;6.70;;;9.30;99.90;;;;;;5033177;28;20017;-86
2022/04/06 03:54:03;;;;;;;8.05;7.25;;;9.40;99.90;;;;;;5032603;28;20025;-86
2022/04/06 03:56:29;;;;;;;8.40;6.78;;;9.40;99.90;;;;;;5027519;28;20121;-88
2022/04/06 03:58:55;;;;;;;6.78;6.18;;;9.30;99.90;;;;;;5050298;28;20036;-87
2022/04/06 04:01:21;;;;;;;7.70;6.55;;;9.30;99.90;;;;;;5032061;28;20400;-86
2022/04/06 04:03:47;;;;;;;8.40;6.90;;;9.30;99.90;;;;;;5050828;28;20029;-88
2022/04/06 04:06:13;;;;;;;7.32;6.63;;;9.20;99.90;;;;;;5052005;28;20016;-87
2022/04/06 04:08:39;;;;;;;7.10;6.50;;;9.20;99.90;;;;;;5043218;28;20040;-87
2022/04/06 04:11:04;;;;;;;7.70;7.00;;;9.20;99.90;;;;;;5048132;28;20025;-88
2022/04/06 04:13:30;;;;;;;7.97;7.28;;;9.30;99.90;;;;;;5039385;28;20037;-86
2022/04/06 04:15:56;;;;;;;8.23;7.43;;;9.30;99.90;;;;;;5062442;28;20037;-86
2022/04/06 04:18:21;;;;;;;7.82;7.18;;;9.30;99.90;;;;;;5060450;28;20024;-87
2022/04/06 04:20:47;;;;;;;8.98;8.18;;;9.30;99.90;;;;;;5036232;28;20060;-88
2022/04/06 04:23:13;;;;;;;8.57;7.90;;;9.30;99.90;;;;;;5061174;28;20029;-87
2022/04/06 04:25:38;;;;;;;8.85;8.05;;;9.30;99.90;;;;;;5049530;28;20037;-86
2022/04/06 04:28:05;;;;;;;9.30;8.55;;;9.30;99.90;;;;;;5050563;28;20037;-87
2022/04/06 04:30:31;;;;;;;10.18;9.38;;;9.30;99.90;;;;;;5029488;28;20017;-86
2022/04/06 04:32:57;;;;;;;9.73;8.93;;;9.30;99.90;;;;;;5049578;28;20144;-86
2022/04/06 04:35:22;;;;;;;10.70;9.70;;;9.20;99.90;;;;;;5050485;28;20112;-84
2022/04/06 04:37:51;;;;;;;10.10;9.23;;;9.30;99.90;;;;;;5033167;28;20048;-86
2022/04/06 04:40:17;;;;;;;10.18;9.05;;;9.20;99.90;;;;;;5029791;28;20025;-85
2022/04/06 04:42:43;;;;;;;10.35;9.38;;;9.10;99.90;;;;;;5029998;28;20036;-85
2022/04/06 04:45:11;;;;;;;9.85;8.90;;;9.10;99.90;;;;;;5024013;28;20033;-86
2022/04/06 04:47:38;;;;;;;10.52;9.63;;;9.10;99.90;;;;;;5049272;28;20021;-86
2022/04/06 04:50:05;;;;;;;10.60;9.75;;;9.10;99.90;;;;;;5050460;28;20045;-86
2022/04/06 04:52:31;;;;;;;9.48;8.68;;;9.10;99.90;;;;;;5032956;28;20492;-87
2022/04/06 04:54:56;;;;;;;9.60;8.60;;;9.10;99.90;;;;;;5049955;28;20028;-86
2022/04/06 04:57:22;;;;;;;9.93;9.13;;;9.00;99.90;;;;;;5051532;28;20388;-86
2022/04/06 04:59:50;;;;;;;10.35;9.23;;;9.00;99.90;;;;;;5032849;28;20037;-86
2022/04/06 05:02:15;;;;;;;10.00;9.20;;;9.00;99.90;;;;;;5032507;28;20489;-85
2022/04/06 05:04:41;;;;;;;10.13;9.32;;;9.00;99.90;;;;;;5032589;28;20037;-86
2022/04/06 05:07:07;;;;;;;10.25;9.35;;;9.00;99.90;;;;;;5021228;28;20489;-86
2022/04/06 05:09:32;;;;;;;8.57;7.88;;;9.00;99.90;;;;;;5050732;28;20036;-85
2022/04/06 05:11:58;;;;;;;9.45;8.57;;;9.00;99.90;;;;;;5039066;28;20033;-86
2022/04/06 05:14:24;;;;;;;10.32;9.27;;;8.90;99.90;;;;;;5053390;28;20070;-86
2022/04/06 05:16:49;;;;;;;8.93;8.20;;;9.00;99.90;;;;;;5035882;28;20032;-86
2022/04/06 05:19:15;;;;;;;10.15;9.13;;;9.00;99.90;;;;;;5054739;28;20032;-86
2022/04/06 05:21:40;;;;;;;10.75;9.75;;;9.00;99.90;;;;;;5037376;28;20025;-86
2022/04/06 05:24:06;;;;;;;11.05;9.93;;;9.00;99.90;;;;;;5051988;28;20033;-85
2022/04/06 05:26:32;;;;;;;11.07;10.18;;;9.00;99.90;;;;;;5054363;28;20167;-86
2022/04/06 05:28:58;;;;;;;11.70;10.60;;;9.00;99.90;;;;;;5053062;28;20033;-86
2022/04/06 05:31:23;;;;;;;11.10;10.18;;;9.00;99.90;;;;;;5031449;28;20082;-87
2022/04/06 05:33:49;;;;;;;11.18;10.18;;;9.00;99.90;;;;;;5050789;28;20096;-86
2022/04/06 05:36:15;;;;;;;11.48;10.57;;;9.00;99.90;;;;;;5036862;28;20053;-86
2022/04/06 05:38:40;;;;;;;11.02;10.13;;;9.10;99.90;;;;;;5036868;28;20032;-86
2022/04/06 05:41:07;;;;;;;11.63;10.45;;;9.10;99.90;;;;;;5051998;28;20033;-86
2022/04/06 05:43:32;;;;;;;11.07;10.13;;;9.20;99.90;;;;;;5029172;28;20045;-85
2022/04/06 05:45:58;;;;;;;11.30;10.30;;;9.20;99.90;;;;;;5053182;28;20089;-86
2022/04/06 05:48:24;;;;;;;10.43;9.45;;;9.20;99.90;;;;;;5053870;28;20750;-86
2022/04/06 05:50:50;;;;;;;9.27;8.48;;;9.10;99.90;;;;;;5034767;28;20489;-86
2022/04/06 05:53:15;;;;;;;10.57;9.65;;;9.20;99.90;;;;;;5053983;28;20029;-86
2022/04/06 05:55:42;;;;;;;9.10;8.20;;;9.20;99.90;;;;;;5034522;28;20107;-87
2022/04/06 05:58:08;;;;;;;10.10;9.30;;;9.20;99.90;;;;;;5032484;28;20030;-87
2022/04/06 06:00:34;;;;;;;9.07;8.38;;;9.30;99.90;;;;;;5036828;28;20071;-85
2022/04/06 06:02:59;;;;;;;9.70;8.77;;;9.30;99.90;;;;;;5053793;28;20099;-86
2022/04/06 06:05:25;;;;;;;9.63;8.82;;;9.30;99.90;;;;;;5052806;28;20037;-86
2022/04/06 06:07:50;;;;;;;9.90;9.02;;;9.30;99.90;;;;;;5053716;28;20029;-85
2022/04/06 06:10:16;;;;;;;9.85;8.95;;;9.40;99.90;;;;;;5034123;28;20033;-86
2022/04/06 06:12:42;;;;;;;8.68;7.95;;;9.50;99.90;;;;;;5033719;28;20025;-86
2022/04/06 06:15:08;;;;;;;10.68;9.68;;;9.50;99.90;;;;;;5052122;28;20504;-87
2022/04/06 06:17:41;;;;;;;9.68;8.88;;;9.60;99.90;;;;;;5052817;28;20090;-86
2022/04/06 06:20:07;;;;;;;9.73;8.85;;;9.60;99.90;;;;;;5033760;28;20080;-86
2022/04/06 06:22:34;;;;;;;9.00;8.20;;;9.70;99.90;;;;;;5051739;28;20025;-86
2022/04/06 06:25:00;;;;;;;9.48;8.63;;;9.70;99.90;;;;;;5052315;28;20017;-88
2022/04/06 06:27:26;;;;;;;9.32;8.52;;;9.70;99.90;;;;;;5053881;28;20063;-86
2022/04/06 06:29:51;;;;;;;10.10;8.82;;;9.70;99.90;;;;;;5034311;28;20496;-87
2022/04/06 06:32:20;;;;;;;9.27;8.20;;;9.70;99.90;;;;;;5052763;28;20072;-88
2022/04/06 06:34:45;;;;;;;9.85;9.05;;;9.80;99.90;;;;;;5035039;28;20570;-86
2022/04/06 06:37:11;;;;;;;8.93;8.23;;;9.80;99.90;;;;;;5051587;28;20048;-89
2022/04/06 06:39:40;;;;;;;9.43;8.57;;;9.90;99.90;;;;;;5052576;28;20025;-86
2022/04/06 06:42:06;;;;;;;8.23;7.63;;;9.90;99.90;;;;;;5051743;28;20033;-86
2022/04/06 06:44:32;;;;;;;9.80;8.25;;;10.00;99.90;;;;;;5034925;28;20033;-85
2022/04/06 06:46:58;;;;;;;8.20;7.43;;;10.00;99.90;;;;;;5051825;28;20025;-87
2022/04/06 06:49:23;;;;;;;9.82;7.70;;;10.10;99.90;;;;;;5029894;28;20499;-86
2022/04/06 06:51:49;;;;;;;8.60;7.80;;;10.20;99.90;;;;;;5034311;28;20024;-86
2022/04/06 06:54:14;;;;;;;10.25;8.30;;;10.30;99.90;;;;;;5033977;28;20032;-87
2022/04/06 06:56:40;;;;;;;8.07;7.38;;;10.30;99.90;;;;;;5053335;28;20037;-87
2022/04/06 06:59:06;;;;;;;8.82;7.47;;;10.40;99.90;;;;;;5034509;28;20037;-87
2022/04/06 07:01:31;;;;;;;9.18;8.38;;;10.50;99.90;;;;;;5035162;28;20029;-87
2022/04/06 07:03:57;;;;;;;8.25;7.55;;;10.50;99.90;;;;;;5052629;28;20043;-88
2022/04/06 07:06:22;;;;;;;8.27;7.55;;;10.50;99.90;;;;;;5053028;28;20150;-87
2022/04/06 07:08:48;;;;;;;9.02;8.13;;;10.50;99.90;;;;;;5050462;28;20055;-88
2022/04/06 07:11:14;;;;;;;7.80;7.10;;;10.60;99.90;;;;;;5051884;28;20021;-86
2022/04/06 07:13:39;;;;;;;8.30;7.50;;;10.60;99.90;;;;;;5033676;28;20504;-86
2022/04/06 07:16:06;;;;;;;8.00;7.30;;;10.60;99.90;;;;;;5051294;28;20041;-86
2022/04/06 07:18:33;;;;;;;7.75;7.05;;;10.70;99.90;;;;;;5033777;28;20384;-87
2022/04/06 07:21:00;;;;;;;8.23;7.53;;;10.60;99.90;;;;;;5048324;28;20119;-86
2022/04/06 07:23:26;;;;;;;9.00;8.05;;;10.60;99.90;;;;;;5051118;28;20033;-86
2022/04/06 07:25:51;;;;;;;7.88;7.28;;;10.60;99.90;;;;;;5033714;28;20066;-87
2022/04/06 07:28:17;;;;;;;7.90;7.30;;;10.50;99.90;;;;;;5050159;28;20027;-87
2022/04/06 07:30:42;;;;;;;8.23;7.43;;;10.50;99.90;;;;;;5050857;28;20052;-86
2022/04/06 07:33:13;;;;;;;8.27;7.57;;;10.50;99.90;;;;;;5049656;28;20083;-87
2022/04/06 07:35:39;;;;;;;9.10;8.40;;;10.50;99.90;;;;;;5050145;28;20071;-87
2022/04/06 07:38:06;;;;;;;8.55;7.75;;;10.50;99.90;;;;;;5030994;28;20052;-86
2022/04/06 07:40:31;;;;;;;7.65;7.03;;;10.50;99.90;;;;;;5051045;28;20075;-87
2022/04/06 07:42:57;;;;;;;8.18;7.50;;;10.60;99.90;;;;;;5032390;28;20640;-85
2022/04/06 07:45:24;;;;;;;7.57;6.88;;;10.70;99.90;;;;;;5051731;28;20104;-87
2022/04/06 07:47:51;;;;;;;7.60;7.00;;;10.80;99.90;;;;;;5049379;28;20033;-86
2022/04/06 07:50:19;;;;;;;7.65;6.95;;;10.90;99.90;;;;;;5051345;28;20030;-86
2022/04/06 07:52:45;;;;;;;8.60;7.80;;;11.10;99.90;;;;;;5051152;28;20028;-86
2022/04/06 07:55:11;;;;;;;7.40;6.80;;;11.10;99.90;;;;;;5034129;28;20083;-88
2022/04/06 07:57:38;;;;;;;7.57;6.97;;;11.20;99.90;;;;;;5033496;28;20028;-87
2022/04/06 08:00:06;;;;;;;7.30;6.70;;;11.20;99.90;;;;;;5052171;28;20029;-87
2022/04/06 08:02:33;;;;;;;8.23;7.43;;;11.30;99.90;;;;;;5045418;28;20705;-85
2022/04/06 08:04:58;;;;;;;7.90;6.53;;;11.40;99.90;;;;;;5050286;28;20706;-87
2022/04/06 08:07:24;;;;;;;7.05;6.45;;;11.50;99.90;;;;;;5032906;28;20105;-86
2022/04/06 08:09:50;;;;;;;7.32;6.63;;;11.70;99.90;;;;;;5028473;28;20427;-88
2022/04/06 08:12:15;;;;;;;6.40;5.90;;;11.80;99.90;;;;;;5049370;28;20092;-86
2022/04/06 08:14:41;;;;;;;7.13;6.53;;;12.00;99.90;;;;;;5031200;28;20500;-86
2022/04/06 08:17:07;;;;;;;6.88;6.18;;;12.10;99.90;;;;;;5031287;28;20029;-88
2022/04/06 08:19:32;;;;;;;7.15;6.53;;;12.30;99.90;;;;;;5033050;28;20094;-85
2022/04/06 08:21:58;;;;;;;6.88;6.10;;;12.50;99.90;;;;;;5045170;28;20112;-88
2022/04/06 08:24:24;;;;;;;6.03;5.45;;;12.80;99.90;;;;;;5032015;28;20158;-87
2022/04/06 08:26:49;;;;;;;5.97;5.47;;;12.90;99.90;;;;;;5048412;28;20104;-87
2022/04/06 08:29:15;;;;;;;6.50;5.97;;;13.10;99.90;;;;;;5049728;28;20067;-89
2022/04/06 08:31:41;;;;;;;6.10;5.60;;;13.40;99.90;;;;;;5048372;28;20040;-88
2022/04/06 08:34:07;;;;;;;6.28;5.78;;;13.80;99.90;;;;;;5049562;28;20025;-87
2022/04/06 08:36:33;;;;;;;5.03;4.63;;;14.30;98.80;;;;;;5048039;28;20036;-85
2022/04/06 08:39:01;;;;;;;5.25;4.75;;;14.50;95.80;;;;;;5045992;28;20508;-87
2022/04/06 08:41:28;;;;;;;5.70;5.15;;;14.70;94.50;;;;;;5025370;28;20045;-86
2022/04/06 08:43:57;;;;;;;5.68;5.18;;;14.70;93.80;;;;;;5047968;28;20044;-88
2022/04/06 08:46:23;;;;;;;5.47;4.97;;;14.70;93.30;;;;;;5039194;28;20037;-88
2022/04/06 08:48:51;;;;;;;7.72;5.35;;;14.70;92.40;;;;;;5024256;28;20037;-87
2022/04/06 08:51:17;;;;;;;5.40;4.97;;;14.60;92.10;;;;;;5052204;28;20068;-87
2022/04/06 08:53:45;;;;;;;5.00;4.60;;;14.60;91.40;;;;;;5048790;28;20033;-86
2022/04/06 08:56:14;;;;;;;5.20;4.80;;;14.60;92.00;;;;;;5025753;28;20512;-87
2022/04/06 08:58:41;;;;;;;5.85;4.95;;;14.70;91.30;;;;;;5031698;28;20100;-88
2022/04/06 09:01:07;;;;;;;5.40;4.90;;;14.80;90.70;;;;;;5048214;28;20036;-87
2022/04/06 09:03:34;;;;;;;5.03;4.13;;;15.30;90.60;;;;;;5049722;28;20037;-87
2022/04/06 09:06:06;;;;;;;4.78;4.25;;;15.70;87.40;;;;;;5033225;28;20029;-88
2022/04/06 09:08:44;;;;;;;4.65;4.25;;;15.80;85.40;;;;;;5046740;28;20032;-88
2022/04/06 09:11:11;;;;;;;4.10;3.70;;;15.90;84.40;;;;;;5029843;28;20051;-88
2022/04/06 09:13:38;;;;;;;5.07;4.57;;;16.00;83.90;;;;;;5048404;28;20624;-87
2022/04/06 09:16:14;;;;;;;4.35;3.92;;;16.00;84.60;;;;;;5049231;28;20029;-85
2022/04/06 09:18:43;;;;;;;3.97;3.67;;;16.20;83.20;;;;;;5029736;28;20412;-87
2022/04/06 09:21:14;;;;;;;4.10;3.70;;;16.50;81.10;;;;;;5051583;28;20037;-85
2022/04/06 09:23:40;;;;;;;3.97;3.67;;;16.90;80.00;;;;;;5049071;28;20039;-86
2022/04/06 09:26:13;;;;;;;3.75;3.42;;;17.50;77.10;;;;;;5032757;28;20516;-85
2022/04/06 09:28:40;;;;;;;5.57;3.47;;;18.00;76.70;;;;;;5019355;28;20029;-85
2022/04/06 09:31:06;;;;;;;3.50;3.20;;;18.40;74.00;;;;;;5052387;28;20029;-88
2022/04/06 09:33:32;;;;;;;3.80;3.40;;;18.70;71.00;;;;;;5048051;28;20713;-85
2022/04/06 09:35:58;;;;;;;4.10;3.72;;;18.90;68.70;;;;;;5049000;28;20033;-86
2022/04/06 09:38:32;;;;;;;4.07;3.63;;;19.30;66.90;;;;;;5051361;28;20083;-86
2022/04/06 09:41:06;;;;;;;4.18;3.50;;;19.50;65.00;;;;;;5032357;28;20029;-87
2022/04/06 09:43:35;;;;;;;4.32;3.88;;;19.70;63.50;;;;;;5033119;28;20033;-86
2022/04/06 09:49:28;;;;;;;4.93;3.95;;;19.90;63.60;;;;;;4989129;28;20104;-87
2022/04/06 09:51:54;;;;;;;4.18;3.83;;;19.70;62.60;;;;;;4984467;28;20018;-85
2022/04/06 09:54:20;;;;;;;4.15;3.28;;;19.30;62.70;;;;;;5014318;28;20029;-85
2022/04/06 09:56:46;;;;;;;4.15;3.60;;;19.20;65.10;;;;;;5049674;28;20029;-84
2022/04/06 09:59:14;;;;;;;4.05;3.20;;;19.20;66.20;;;;;;5051334;28;20033;-85
2022/04/06 10:01:52;;;;;;;3.50;3.20;;;19.40;65.90;;;;;;5034007;28;20025;-87
2022/04/06 10:04:19;;;;;;;3.45;3.20;;;19.80;63.40;;;;;;5047061;28;20043;-85
2022/04/06 10:06:45;;;;;;;5.07;3.35;;;20.00;61.70;;;;;;5048688;28;20051;-87
2022/04/06 10:09:15;;;;;;;4.10;3.80;;;19.80;62.20;;;;;;5025726;28;20025;-87
2022/04/06 10:11:42;;;;;;;3.55;3.35;;;19.70;63.60;;;;;;5031846;28;20036;-86
2022/04/06 10:14:09;;;;;;;4.57;3.92;;;19.80;62.90;;;;;;5034113;28;20029;-87
2022/04/06 10:16:36;;;;;;;3.85;3.55;;;19.60;62.40;;;;;;5032764;28;20033;-86
2022/04/06 10:19:03;;;;;;;4.15;3.75;;;19.40;61.50;;;;;;5034305;28;20021;-85
2022/04/06 10:21:53;;;;;;;4.63;4.05;;;19.10;61.70;;;;;;5051616;28;20040;-85
2022/04/06 10:24:26;;;;;;;4.30;3.90;;;18.80;63.10;;;;;;5048111;28;20523;-85
2022/04/06 10:27:21;;;;;;;4.50;4.10;;;18.50;63.20;;;;;;5034457;28;20041;-84
2022/04/06 10:30:05;;;;;;;5.10;4.60;;;18.40;64.30;;;;;;5051548;28;20025;-85
2022/04/06 10:32:35;;;;;;;6.60;4.05;;;18.20;63.40;;;;;;5034689;28;20175;-85
2022/04/06 10:35:20;;;;;;;4.13;3.72;;;17.90;64.00;;;;;;5020242;28;20075;-85
2022/04/06 10:37:52;;;;;;;4.03;3.63;;;17.90;64.80;;;;;;5031588;28;20041;-85
2022/04/06 10:40:18;;;;;;;4.35;3.72;;;18.10;64.80;;;;;;5033283;28;20018;-86
2022/04/06 10:42:45;;;;;;;5.85;3.88;;;18.20;64.30;;;;;;5051635;28;20040;-84
2022/04/06 10:45:29;;;;;;;4.72;3.80;;;18.40;64.10;;;;;;5033480;28;20045;-87
2022/04/06 10:48:20;;;;;;;4.80;4.32;;;18.70;64.20;;;;;;5030165;28;20034;-87
2022/04/06 10:50:47;;;;;;;;;;;18.90;62.00;;;;;;5051958;28;20591;-86
2022/04/06 10:53:19;;;;;;;4.90;4.50;;;19.20;62.30;;;;;;5034106;28;19913;-87
2022/04/06 10:56:01;;;;;;;4.00;3.60;;;19.40;60.50;;;;;;5033336;28;20835;-87
2022/04/06 10:58:27;;;;;;;5.35;4.18;;;19.90;59.60;;;;;;5054138;28;20079;-85
2022/04/06 11:01:15;;;;;;;5.93;3.88;;;20.10;58.20;;;;;;5050488;28;20036;-85
2022/04/06 11:03:55;;;;;;;4.60;4.20;;;20.40;59.60;;;;;;5041798;28;20032;-86
2022/04/06 11:06:49;;;;;;;3.72;3.42;;;20.10;58.00;;;;;;5018509;28;20033;-86
2022/04/06 11:12:54;;;;;;;5.45;4.13;;;19.20;60.30;;;;;;5043089;28;20044;-85
2022/04/06 11:15:20;;;;;;;4.15;3.75;;;18.90;62.10;;;;;;5034489;28;20045;-85
2022/04/06 11:17:48;;;;;;;4.70;4.30;;;18.70;63.40;;;;;;5053963;28;20445;-85
2022/04/06 11:20:19;;;;;;;4.80;4.32;;;18.50;62.70;;;;;;5033660;28;20025;-86
2022/04/06 11:22:57;;;;;;;4.72;4.25;;;18.40;63.20;;;;;;5048691;28;20116;-86
2022/04/06 11:25:26;;;;;;;3.85;3.55;;;18.80;64.00;;;;;;5049461;28;20041;-86
2022/04/06 11:27:54;;;;;;;3.85;3.55;;;19.20;62.90;;;;;;5042956;28;20037;-86
2022/04/06 11:30:23;;;;;;;4.07;3.67;;;19.60;61.20;;;;;;5037025;28;20397;-87
2022/04/06 11:32:58;;;;;;;4.03;3.63;;;19.80;59.50;;;;;;5024419;28;20042;-85
2022/04/06 11:35:34;;;;;;;4.03;3.10;;;19.70;58.30;;;;;;5033067;28;20025;-88
2022/04/06 11:38:02;;;;;;;3.38;3.05;;;19.60;60.10;;;;;;5034655;28;20123;-85
2022/04/06 11:40:28;;;;;;;4.25;3.85;;;19.30;59.40;;;;;;5034191;28;20033;-85
2022/04/06 11:42:57;;;;;;;4.00;3.40;;;19.00;59.10;;;;;;5050305;28;20396;-86
2022/04/06 11:45:34;;;;;;;3.80;3.47;;;19.10;60.40;;;;;;5031068;28;20076;-85
2022/04/06 11:48:01;;;;;;;3.50;3.13;;;19.60;62.20;;;;;;5040902;28;20025;-85
2022/04/06 11:50:29;;;;;;;3.22;2.92;;;20.20;58.70;;;;;;5051528;28;20476;-86
2022/04/06 11:52:59;;;;;;;4.47;3.05;;;20.60;56.80;;;;;;5032827;28;20110;-86
2022/04/06 11:55:48;;;;;;;3.55;3.22;;;20.50;55.50;;;;;;5030941;28;20021;-88
2022/04/06 11:58:33;;;;;;;4.03;3.42;;;20.40;56.70;;;;;;5044219;28;20025;-86
2022/04/06 12:01:03;;;;;;;3.25;2.80;;;20.40;56.90;;;;;;5047615;28;20021;-86
2022/04/06 12:03:30;;;;;;;3.33;3.05;;;20.50;57.30;;;;;;5049672;28;20017;-86
2022/04/06 12:05:56;;;;;;;2.78;2.58;;;20.40;54.50;;;;;;5046605;28;20053;-86
2022/04/06 12:08:23;;;;;;;3.70;3.05;;;20.40;57.10;;;;;;5033174;28;20463;-86
2022/04/06 12:10:51;;;;;;;3.40;3.10;;;20.40;57.50;;;;;;5049453;28;20080;-86
2022/04/06 12:13:18;;;;;;;4.53;2.90;;;20.30;56.10;;;;;;5051083;28;20035;-87
2022/04/06 12:15:48;;;;;;;5.13;3.55;;;20.10;55.70;;;;;;5033262;28;20047;-87
2022/04/06 12:18:19;;;;;;;3.90;2.30;;;20.00;56.40;;;;;;5051204;28;20045;-88
2022/04/06 12:20:46;;;;;;;4.15;2.45;;;20.10;56.60;;;;;;5031128;28;20021;-86
2022/04/06 12:23:13;;;;;;;4.18;2.70;;;20.30;57.30;;;;;;5033993;28;20029;-87
2022/04/06 12:25:39;;;;;;;3.17;2.88;;;20.30;55.60;;;;;;5049994;28;20064;-85
2022/04/06 12:28:23;;;;;;;3.60;2.65;;;20.00;55.10;;;;;;5033353;28;20031;-88
2022/04/06 12:30:57;;;;;;;4.05;3.00;;;19.80;56.00;;;;;;5047037;28;20397;-87
2022/04/06 12:33:38;;;;;;;3.67;2.80;;;19.60;56.10;;;;;;5031371;28;20388;-87
2022/04/06 12:36:23;;;;;;;5.43;3.33;;;19.50;56.70;;;;;;5050619;28;20029;-87
2022/04/06 12:39:01;;;;;;;3.17;2.83;;;19.30;57.00;;;;;;5036206;28;20029;-85
2022/04/06 12:41:30;;;;;;;3.33;2.85;;;19.40;56.90;;;;;;5028832;28;20025;-85
2022/04/06 12:43:56;;;;;;;8.48;3.17;;;19.30;57.30;;;;;;5028320;28;20111;-86
2022/04/06 12:46:40;;;;;;;4.20;2.90;;;19.30;57.10;;;;;;5030573;28;20453;-87
2022/04/06 12:49:24;;;;;;;3.65;2.95;;;19.20;56.90;;;;;;5048872;28;20055;-86
2022/04/06 12:52:12;;;;;;;3.42;2.58;;;19.00;57.10;;;;;;5047986;28;20032;-86
2022/04/06 12:54:39;;;;;;;6.30;2.25;;;18.90;57.30;;;;;;5029502;28;20041;-85
2022/04/06 12:57:05;;;;;;;4.15;2.40;;;18.90;57.50;;;;;;5032628;28;20037;-86
2022/04/06 12:59:57;;;;;;;3.08;2.38;;;18.80;56.70;;;;;;5047951;28;20098;-86
2022/04/06 13:02:31;;;;;;;3.00;2.17;;;18.60;57.00;;;;;;5044023;28;20057;-85
2022/04/06 13:05:01;;;;;;;2.83;2.20;;;18.40;56.60;;;;;;5031223;28;20029;-88